createdAt,value
2023-02-13T00:00:48.676Z,14.85
2023-02-13T00:05:45.035Z,13.82
2023-02-13T00:10:41.432Z,12.77
2023-02-13T00:15:37.875Z,12.45
2023-02-13T00:20:34.323Z,13.05
2023-02-13T00:25:30.708Z,12.45
2023-02-13T00:30:27.144Z,10.23
2023-02-13T00:35:23.482Z,10.32
2023-02-13T00:40:19.976Z,10.77
2023-02-13T00:45:16.350Z,10.27
2023-02-13T00:50:12.752Z,10.90
2023-02-13T00:55:09.171Z,12.93
2023-02-13T01:00:06.180Z,11.25
2023-02-13T01:05:02.915Z,10.18
2023-02-13T01:09:59.245Z,11.45
2023-02-13T01:14:56.060Z,12.27
2023-02-13T01:19:52.511Z,12.32
2023-02-13T01:24:48.878Z,11.10
2023-02-13T01:29:45.261Z,14.50
2023-02-13T01:34:41.692Z,11.25
2023-02-13T01:39:38.182Z,11.88
2023-02-13T01:44:58.047Z,12.38
2023-02-13T01:50:10.104Z,16.30
2023-02-13T01:55:07.679Z,13.38
2023-02-13T02:00:11.805Z,12.00
2023-02-13T02:05:08.967Z,17.83
2023-02-13T02:10:10.200Z,15.07
2023-02-13T02:15:07.845Z,12.73
2023-02-13T02:20:10.587Z,11.77
2023-02-13T02:25:26.124Z,12.88
2023-02-13T02:30:41.346Z,13.18
2023-02-13T02:35:48.575Z,13.07
2023-02-13T02:41:10.497Z,10.60
2023-02-13T02:46:13.329Z,13.32
2023-02-13T02:51:35.451Z,12.90
2023-02-13T02:56:40.755Z,13.23
2023-02-13T03:01:57.327Z,13.13
2023-02-13T03:06:59.440Z,13.13
2023-02-13T03:12:15.236Z,13.02
2023-02-13T03:17:33.783Z,13.35
2023-02-13T03:28:19.319Z,19.15
2023-02-13T03:33:44.139Z,19.17
2023-02-13T03:39:05.766Z,17.42
2023-02-13T03:44:41.539Z,18.95
2023-02-13T03:50:03.240Z,20.13
2023-02-13T03:55:31.883Z,17.95
2023-02-13T04:00:35.112Z,16.83
2023-02-13T04:05:36.532Z,19.80
2023-02-13T04:10:37.144Z,20.15
2023-02-13T04:15:46.220Z,18.67
2023-02-13T04:20:43.198Z,19.77
2023-02-13T04:25:44.069Z,16.40
2023-02-13T04:30:40.617Z,15.75
2023-02-13T04:35:37.846Z,16.88
2023-02-13T04:40:34.240Z,20.45
2023-02-13T04:45:30.720Z,16.50
2023-02-13T04:50:27.191Z,19.38
2023-02-13T04:55:25.348Z,16.02
2023-02-13T05:00:26.466Z,15.80
2023-02-13T05:05:22.918Z,18.13
2023-02-13T05:10:19.412Z,15.38
2023-02-13T05:15:15.720Z,17.25
2023-02-13T05:20:14.026Z,16.27
2023-02-13T05:25:10.428Z,15.82
2023-02-13T05:30:07.409Z,16.75
2023-02-13T05:35:04.918Z,14.25
2023-02-13T05:40:01.292Z,15.25
2023-02-13T05:44:57.714Z,14.13
2023-02-13T05:49:54.100Z,16.33
2023-02-13T05:54:50.555Z,15.25
2023-02-13T05:59:46.863Z,12.85
2023-02-13T06:04:43.272Z,14.10
2023-02-13T06:09:39.683Z,15.38
2023-02-13T06:14:36.001Z,12.80
2023-02-13T06:19:32.384Z,15.80
2023-02-13T06:24:28.736Z,16.10
2023-02-13T06:29:25.127Z,17.05
2023-02-13T06:34:21.443Z,14.85
2023-02-13T06:39:17.794Z,12.70
2023-02-13T06:44:14.233Z,11.77
2023-02-13T06:49:10.695Z,15.55
2023-02-13T06:54:07.054Z,14.40
2023-02-13T06:59:03.409Z,16.23
2023-02-13T07:03:59.776Z,16.00
2023-02-13T07:08:56.485Z,15.63
2023-02-13T07:13:53.176Z,13.60
2023-02-13T07:18:49.612Z,13.27
2023-02-13T07:23:45.923Z,12.63
2023-02-13T07:28:42.343Z,18.90
2023-02-13T07:33:38.767Z,13.85
2023-02-13T07:38:35.207Z,12.13
2023-02-13T07:43:31.666Z,12.00
2023-02-13T07:48:28.665Z,12.55
2023-02-13T07:53:24.983Z,10.32
2023-02-13T07:58:21.368Z,11.55
2023-02-13T08:03:17.683Z,10.50
2023-02-13T08:08:13.982Z,12.02
2023-02-13T08:13:12.968Z,9.52
2023-02-13T08:18:09.806Z,7.03
2023-02-13T08:23:07.958Z,14.57
2023-02-13T08:28:04.833Z,6.10
2023-02-13T08:33:01.354Z,8.75
2023-02-13T08:38:01.960Z,6.93
2023-02-13T08:43:05.891Z,6.85
2023-02-13T08:48:04.177Z,6.90
2023-02-13T08:53:00.736Z,7.75
2023-02-13T08:58:03.052Z,9.73
2023-02-13T09:03:03.995Z,7.28
2023-02-13T09:08:02.772Z,6.25
2023-02-13T09:12:59.375Z,7.18
2023-02-13T09:17:55.961Z,7.10
2023-02-13T09:22:54.553Z,6.45
2023-02-13T09:32:47.215Z,7.65
2023-02-13T09:37:45.530Z,8.63
2023-02-13T09:42:43.624Z,4.40
2023-02-13T09:47:42.792Z,6.88
2023-02-13T09:52:40.044Z,6.93
2023-02-13T09:57:42.861Z,4.50
2023-02-13T10:02:47.644Z,4.88
2023-02-13T10:07:53.209Z,6.18
2023-02-13T10:13:07.399Z,6.70
2023-02-13T10:18:09.846Z,5.03
2023-02-13T10:23:22.172Z,9.13
2023-02-13T10:28:30.141Z,5.72
2023-02-13T10:33:32.656Z,5.57
2023-02-13T10:38:34.426Z,4.63
2023-02-13T10:43:39.508Z,6.15
2023-02-13T10:48:52.200Z,6.30
2023-02-13T10:54:06.971Z,7.07
2023-02-13T10:59:23.753Z,8.07
2023-02-13T11:04:20.551Z,7.47
2023-02-13T11:09:17.324Z,6.30
2023-02-13T11:14:21.344Z,7.85
2023-02-13T11:19:28.547Z,6.32
2023-02-13T11:24:27.069Z,5.75
2023-02-13T11:39:20.592Z,6.13
2023-02-13T11:44:26.274Z,4.65
2023-02-13T11:49:38.736Z,5.53
2023-02-13T11:54:46.122Z,5.78
2023-02-13T11:59:44.523Z,6.55
2023-02-13T12:04:41.412Z,4.40
2023-02-13T12:09:40.538Z,5.55
2023-02-13T12:14:44.920Z,6.20
2023-02-13T12:19:43.774Z,5.95
2023-02-13T12:24:52.382Z,7.00
2023-02-13T12:29:56.003Z,5.25
2023-02-13T12:35:14.720Z,4.97
2023-02-13T12:40:50.201Z,5.00
2023-02-13T12:46:04.608Z,5.65
2023-02-13T12:51:22.698Z,5.65
2023-02-13T12:56:34.137Z,4.30
2023-02-13T13:01:56.889Z,5.82
2023-02-13T13:07:19.483Z,3.90
2023-02-13T13:12:26.950Z,4.25
2023-02-13T13:17:37.140Z,4.27
2023-02-13T13:22:45.863Z,4.13
2023-02-13T13:27:50.038Z,4.47
2023-02-13T13:32:51.984Z,4.60
2023-02-13T13:38:25.378Z,3.35
2023-02-13T13:43:28.616Z,4.38
2023-02-13T13:48:34.921Z,5.43
2023-02-13T13:53:31.489Z,4.75
2023-02-13T13:58:45.602Z,4.25
2023-02-13T14:03:44.376Z,6.35
2023-02-13T14:08:40.684Z,4.75
2023-02-13T14:13:39.994Z,4.57
2023-02-13T14:18:38.446Z,4.95
2023-02-13T14:28:49.154Z,5.30
2023-02-13T14:33:46.525Z,4.95
2023-02-13T14:38:43.099Z,3.75
2023-02-13T14:43:51.122Z,3.78
2023-02-13T14:48:58.877Z,3.70
2023-02-13T14:54:04.739Z,5.47
2023-02-13T14:59:11.606Z,5.90
2023-02-13T15:04:16.996Z,4.35
2023-02-13T15:09:23.989Z,4.03
2023-02-13T15:14:36.372Z,3.65
2023-02-13T15:19:36.827Z,4.57
2023-02-13T15:24:53.910Z,4.20
2023-02-13T15:30:02.099Z,3.63
2023-02-13T15:34:59.195Z,3.65
2023-02-13T15:39:55.663Z,4.22
2023-02-13T15:44:58.134Z,3.80
2023-02-13T15:49:54.702Z,3.28
2023-02-13T15:54:55.706Z,3.72
2023-02-13T15:59:54.365Z,4.68
2023-02-13T16:04:54.411Z,6.03
2023-02-13T16:09:52.334Z,6.20
2023-02-13T16:14:57.472Z,6.90
2023-02-13T16:20:01.656Z,4.07
2023-02-13T16:25:21.345Z,3.70
2023-02-13T16:30:33.095Z,5.40
2023-02-13T16:35:33.362Z,6.10
2023-02-13T16:40:41.954Z,5.40
2023-02-13T16:50:34.721Z,5.75
2023-02-13T16:55:31.767Z,6.57
2023-02-13T17:00:28.167Z,5.65
2023-02-13T17:05:27.836Z,8.88
2023-02-13T17:10:35.270Z,8.68
2023-02-13T17:15:32.678Z,7.97
2023-02-13T17:20:31.402Z,10.45
2023-02-13T17:30:30.125Z,11.77
2023-02-13T17:35:26.739Z,10.45
2023-02-13T17:40:25.445Z,8.70
2023-02-13T17:45:24.908Z,10.90
2023-02-13T17:50:21.560Z,10.20
2023-02-13T17:55:24.408Z,11.18
2023-02-13T18:00:21.454Z,16.42
2023-02-13T18:05:18.851Z,14.93
2023-02-13T18:10:16.915Z,11.43
2023-02-13T18:15:13.757Z,9.50
2023-02-13T18:20:15.964Z,13.23
2023-02-13T18:25:13.448Z,9.95
2023-02-13T18:30:12.925Z,11.73
2023-02-13T18:35:09.854Z,12.63
2023-02-13T18:40:08.450Z,14.07
2023-02-13T18:45:05.040Z,14.60
2023-02-13T18:50:01.466Z,14.90
2023-02-13T18:54:57.863Z,13.00
2023-02-13T18:59:54.240Z,14.32
2023-02-13T19:04:50.670Z,14.00
2023-02-13T19:09:47.620Z,13.35
2023-02-13T19:14:44.214Z,13.48
2023-02-13T19:19:40.590Z,15.75
2023-02-13T19:24:36.968Z,15.70
2023-02-13T19:29:33.341Z,14.68
2023-02-13T19:34:29.807Z,15.27
2023-02-13T19:39:26.150Z,12.88
2023-02-13T19:44:22.656Z,13.52
2023-02-13T19:49:20.989Z,16.60
2023-02-13T19:54:17.363Z,16.98
2023-02-13T19:59:14.211Z,16.77
2023-02-13T20:04:11.718Z,12.77
2023-02-13T20:09:11.925Z,15.13
2023-02-13T20:14:14.415Z,18.17
2023-02-13T20:19:13.618Z,15.80
2023-02-13T20:24:11.069Z,15.23
2023-02-13T20:29:08.853Z,21.80
2023-02-13T20:34:06.803Z,18.57
2023-02-13T20:39:06.553Z,17.10
2023-02-13T20:44:06.912Z,18.83
2023-02-13T20:49:04.046Z,13.75
2023-02-13T20:54:00.549Z,15.60
2023-02-13T20:58:58.898Z,16.58
2023-02-13T21:03:56.050Z,15.85
2023-02-13T21:08:52.965Z,16.15
2023-02-13T21:13:49.773Z,17.13
2023-02-13T21:18:51.811Z,18.08
2023-02-13T21:23:51.943Z,17.92
2023-02-13T21:28:49.353Z,19.92
2023-02-13T21:33:46.078Z,17.45
2023-02-13T21:38:42.488Z,19.35
2023-02-13T21:43:39.814Z,17.42
2023-02-13T21:48:37.033Z,14.80
2023-02-13T21:53:33.607Z,16.23
2023-02-13T21:58:33.470Z,19.40
2023-02-13T22:03:29.892Z,17.65
2023-02-13T22:08:26.276Z,17.88
2023-02-13T22:13:23.580Z,18.25
2023-02-13T22:18:20.326Z,23.20
2023-02-13T22:23:16.676Z,17.70
2023-02-13T22:28:13.077Z,20.17
2023-02-13T22:33:09.998Z,22.02
2023-02-13T22:38:06.878Z,22.70
2023-02-13T22:43:03.916Z,24.23
2023-02-13T22:48:00.689Z,22.00
2023-02-13T22:52:57.150Z,25.02
2023-02-13T22:57:58.831Z,22.10
2023-02-13T23:02:55.172Z,19.90
2023-02-13T23:07:51.510Z,15.77
2023-02-13T23:12:50.116Z,20.15
2023-02-13T23:18:05.133Z,19.25
2023-02-13T23:23:03.180Z,18.45
2023-02-13T23:28:01.131Z,20.38
2023-02-13T23:32:59.182Z,22.30
2023-02-13T23:37:55.622Z,18.27
2023-02-13T23:42:52.341Z,20.60
2023-02-13T23:47:48.840Z,21.23
2023-02-13T23:52:45.734Z,17.95
2023-02-13T23:57:42.097Z,24.67
